Time;durP1;ratioP1;P1;durP2;ratioP2;P2;SDS_P1;SDS_P2;PMS_P1;PMS_P2;Temp;Humidity;BMP_temperature;BMP_pressure;BME280_temperature;BME280_humidity;BME280_pressure;Samples;Min_cycle;Max_cycle;Signal;HPM_P1;HPM_P2
2022/02/19 00:00:59;;;;;;;2.97;0.50;;;;;;;;;;4972459;28;20070;-86
2022/02/19 00:03:33;;;;;;;1.17;0.40;;;;;;;;;;4981304;28;20474;-86
2022/02/19 00:09:47;;;;;;;;;;;;;;;;;;;;;
2022/02/19 00:12:35;;;;;;;2.00;0.20;;;;;;;;;;4994522;28;20132;-86
2022/02/19 00:15:21;;;;;;;1.30;0.23;;;;;;;;;;4981369;28;20109;-87
2022/02/19 00:18:03;;;;;;;5.77;0.50;;;;;;;;;;4983031;28;20085;-87
2022/02/19 00:20:39;;;;;;;5.13;0.80;;;;;;;;;;4969861;28;20049;-87
2022/02/19 00:26:45;;;;;;;;;;;;;;;;;;;;;
2022/02/19 00:52:10;;;;;;;2.77;0.27;;;;;;;;;;4989109;28;20436;-87
2022/02/19 00:58:13;;;;;;;5.53;0.73;;;;;;;;;;4972054;28;20027;-88
2022/02/19 01:04:26;;;;;;;2.23;0.70;;;;;;;;;;4969660;28;20039;-88
2022/02/19 01:07:12;;;;;;;4.40;0.50;;;;;;;;;;4971145;28;20519;-88
2022/02/19 01:22:45;;;;;;;1.43;0.33;;;;;;;;;;4938384;29;20611;-88
2022/02/19 01:25:33;;;;;;;2.77;0.53;;;;;;;;;;4972441;28;20030;-88
2022/02/19 01:28:29;;;;;;;2.87;0.30;;;;;;;;;;4971440;28;20057;-88
2022/02/19 01:31:24;;;;;;;2.63;0.37;;;;;;;;;;4975930;28;20045;-87
2022/02/19 01:34:22;;;;;;;;;;;;;;;;;;;;;
2022/02/19 01:37:35;;;;;;;1.20;0.23;;;;;;;;;;4973023;28;20042;-88
2022/02/19 01:40:04;;;;;;;1.63;0.50;;;;;;;;;;4864278;29;20037;-88
2022/02/19 01:42:45;;;;;;;1.40;0.30;;;;;;;;;;4869963;29;20048;-88
2022/02/19 01:45:12;;;;;;;2.47;0.33;;;;;;;;;;4955363;28;20030;-87
2022/02/19 01:48:02;;;;;;;6.00;0.80;;;;;;;;;;4993698;28;20034;-88
2022/02/19 01:56:00;;;;;;;2.57;0.47;;;;;;;;;;4987114;28;20065;-87
2022/02/19 02:01:58;;;;;;;1.50;0.53;;;;;;;;;;4975111;28;20113;-86
2022/02/19 02:04:42;;;;;;;1.77;0.40;;;;;;;;;;4971756;28;20483;-88
2022/02/19 02:10:36;;;;;;;6.90;0.70;;;;;;;;;;4964658;28;20443;-87
2022/02/19 02:13:34;;;;;;;2.43;0.60;;;;;;;;;;4951518;28;20066;-87
2022/02/19 02:16:24;;;;;;;4.17;0.50;;;;;;;;;;4957293;28;20524;-88
2022/02/19 02:22:20;;;;;;;;;;;;;;;;;;;;;
2022/02/19 02:28:56;;;;;;;4.03;0.30;;;;;;;;;;4994533;28;20042;-87
2022/02/19 02:31:56;;;;;;;2.50;0.68;;;;;;;;;;4904545;29;20699;-88
2022/02/19 02:47:58;;;;;;;4.37;0.40;;;;;;;;;;4913795;29;20040;-89
2022/02/19 02:53:46;;;;;;;;;;;;;;;;;;;;;
2022/02/19 02:56:23;;;;;;;3.70;1.20;;;;;;;;;;4915308;29;20038;-88
2022/02/19 02:59:36;;;;;;;2.90;0.60;;;;;;;;;;4915914;29;20063;-88
2022/02/19 03:02:10;;;;;;;2.10;0.30;;;;;;;;;;4960668;28;20256;-89
2022/02/19 03:04:45;;;;;;;2.83;0.27;;;;;;;;;;4970130;28;20035;-88
2022/02/19 03:07:50;;;;;;;2.83;0.33;;;;;;;;;;4952302;29;20062;-88
2022/02/19 03:10:47;;;;;;;;;;;;;;;;;;;;;
2022/02/19 03:13:36;;;;;;;6.43;0.63;;;;;;;;;;4972732;28;20680;-89
2022/02/19 03:16:10;;;;;;;6.97;1.43;;;;;;;;;;4973306;28;20154;-89
2022/02/19 03:18:39;;;;;;;5.70;0.40;;;;;;;;;;4960019;28;20105;-88
2022/02/19 03:21:29;;;;;;;2.00;0.40;;;;;;;;;;5041638;23;20145;-88
2022/02/19 03:24:18;;;;;;;;;;;;;;;;;;;;;
2022/02/19 03:27:22;;;;;;;2.77;0.50;;;;;;;;;;4986842;28;20026;-88
2022/02/19 03:30:26;;;;;;;;;;;;;;;;;;;;;
2022/02/19 03:39:45;;;;;;;2.23;0.50;;;;;;;;;;4973390;28;20320;-88
2022/02/19 03:42:30;;;;;;;5.10;0.43;;;;;;;;;;4954586;28;20036;-88
2022/02/19 03:45:15;;;;;;;4.13;0.43;;;;;;;;;;4952799;28;20046;-88
2022/02/19 03:48:13;;;;;;;;;;;;;;;;;;;;;
2022/02/19 03:54:05;;;;;;;;;;;;;;;;;;;;;
2022/02/19 03:59:46;;;;;;;7.27;0.77;;;;;;;;;;4971804;28;20045;-88
2022/02/19 04:02:15;;;;;;;3.97;0.77;;;;;;;;;;4956888;28;20034;-88
2022/02/19 04:04:49;;;;;;;3.93;0.20;;;;;;;;;;4955170;28;20022;-88
2022/02/19 04:07:15;;;;;;;7.63;0.90;;;;;;;;;;4934773;28;20030;-87
2022/02/19 04:10:00;;;;;;;3.17;0.50;;;;;;;;;;4952480;28;20035;-88
2022/02/19 04:12:40;;;;;;;7.27;0.50;;;;;;;;;;4947284;28;20046;-88
2022/02/19 04:17:39;;;;;;;2.05;0.40;;;;;;;;;;4999473;23;20535;-84
2022/02/19 04:20:07;;;;;;;3.40;0.20;;;;;;;;;;4972012;28;20077;-85
2022/02/19 04:22:33;;;;;;;5.47;0.60;;;;;;;;;;4983618;28;20031;-84
2022/02/19 04:24:59;;;;;;;2.57;0.50;;;;;;;;;;4971995;28;20041;-84
2022/02/19 04:27:25;;;;;;;1.70;0.30;;;;;;;;;;4976484;28;20116;-85
2022/02/19 04:29:51;;;;;;;2.30;0.33;;;;;;;;;;4973361;28;20049;-84
2022/02/19 04:32:17;;;;;;;2.67;0.30;;;;;;;;;;4976114;28;20022;-84
2022/02/19 04:34:43;;;;;;;4.00;0.23;;;;;;;;;;4971933;28;20593;-84
2022/02/19 04:37:09;;;;;;;4.20;0.47;;;;;;;;;;4973902;28;20053;-84
2022/02/19 04:39:35;;;;;;;2.90;0.20;;;;;;;;;;4970592;28;20049;-84
2022/02/19 04:42:01;;;;;;;5.20;0.73;;;;;;;;;;4972707;28;20081;-85
2022/02/19 04:44:28;;;;;;;2.63;0.30;;;;;;;;;;4990166;28;20081;-85
2022/02/19 04:46:54;;;;;;;3.60;0.40;;;;;;;;;;4973941;28;20029;-85
2022/02/19 04:49:20;;;;;;;3.93;0.40;;;;;;;;;;4992297;28;20022;-85
2022/02/19 04:51:46;;;;;;;3.80;0.53;;;;;;;;;;4974605;28;20046;-84
2022/02/19 04:54:12;;;;;;;7.67;0.50;;;;;;;;;;4973988;28;20023;-84
2022/02/19 04:56:38;;;;;;;1.83;0.33;;;;;;;;;;4973696;28;20026;-83
2022/02/19 04:59:04;;;;;;;3.67;0.40;;;;;;;;;;4991611;28;20097;-84
2022/02/19 05:01:30;;;;;;;2.63;0.20;;;;;;;;;;4974412;28;20121;-85
2022/02/19 05:03:57;;;;;;;1.63;0.50;;;;;;;;;;4973368;28;20538;-84
2022/02/19 05:06:23;;;;;;;2.83;0.20;;;;;;;;;;4991550;28;20471;-85
2022/02/19 05:08:49;;;;;;;3.63;1.07;;;;;;;;;;4973798;28;20026;-84
2022/02/19 05:11:15;;;;;;;3.27;0.33;;;;;;;;;;4974121;28;20026;-84
2022/02/19 05:13:41;;;;;;;1.17;0.27;;;;;;;;;;4984633;28;20117;-84
2022/02/19 05:16:07;;;;;;;2.73;0.67;;;;;;;;;;4972684;28;20442;-85
2022/02/19 05:18:33;;;;;;;2.50;0.40;;;;;;;;;;4973275;28;20022;-84
2022/02/19 05:20:59;;;;;;;3.47;0.37;;;;;;;;;;4965158;28;20034;-85
2022/02/19 05:23:25;;;;;;;1.97;0.37;;;;;;;;;;4968735;28;20038;-84
2022/02/19 05:25:51;;;;;;;2.57;0.50;;;;;;;;;;4970395;28;20030;-84
2022/02/19 05:28:17;;;;;;;2.67;0.23;;;;;;;;;;4973185;28;20041;-84
2022/02/19 05:30:43;;;;;;;3.57;0.37;;;;;;;;;;4990806;28;20502;-85
2022/02/19 05:33:09;;;;;;;5.10;0.73;;;;;;;;;;4989994;28;20054;-84
2022/02/19 05:35:35;;;;;;;8.47;0.40;;;;;;;;;;4992323;28;20102;-84
2022/02/19 05:38:01;;;;;;;1.77;0.40;;;;;;;;;;4989493;28;20033;-84
2022/02/19 05:40:27;;;;;;;3.90;0.50;;;;;;;;;;4974767;28;20161;-84
2022/02/19 05:42:53;;;;;;;1.67;0.40;;;;;;;;;;4973474;28;20069;-85
2022/02/19 05:45:19;;;;;;;3.83;0.30;;;;;;;;;;4974087;28;20053;-84
2022/02/19 05:47:45;;;;;;;1.07;0.27;;;;;;;;;;4974721;28;20034;-84
2022/02/19 05:50:11;;;;;;;2.60;0.37;;;;;;;;;;4992287;28;20026;-85
2022/02/19 05:52:38;;;;;;;3.37;0.40;;;;;;;;;;4992090;28;20081;-84
2022/02/19 05:55:04;;;;;;;5.93;1.13;;;;;;;;;;4976408;28;20482;-85
2022/02/19 05:57:30;;;;;;;2.77;0.20;;;;;;;;;;4993583;28;20050;-85
2022/02/19 05:59:56;;;;;;;10.60;0.47;;;;;;;;;;4992957;28;20143;-84
2022/02/19 06:02:22;;;;;;;5.90;0.47;;;;;;;;;;4976297;28;20471;-84
2022/02/19 06:04:48;;;;;;;5.57;0.47;;;;;;;;;;4992085;28;20045;-85
2022/02/19 06:07:14;;;;;;;3.80;0.30;;;;;;;;;;4974741;28;20022;-85
2022/02/19 06:09:40;;;;;;;3.53;0.30;;;;;;;;;;4973126;28;20030;-85
2022/02/19 06:12:08;;;;;;;3.43;0.30;;;;;;;;;;4974732;28;20037;-84
2022/02/19 06:14:34;;;;;;;1.50;0.30;;;;;;;;;;4992256;28;20029;-86
2022/02/19 06:17:00;;;;;;;2.53;0.27;;;;;;;;;;4975532;28;20026;-85
2022/02/19 06:19:26;;;;;;;4.40;0.33;;;;;;;;;;4991289;28;20093;-85
2022/02/19 06:21:52;;;;;;;6.20;0.40;;;;;;;;;;4975378;28;20154;-85
2022/02/19 06:24:18;;;;;;;5.27;0.33;;;;;;;;;;4991108;28;20022;-85
2022/02/19 06:26:44;;;;;;;3.87;0.67;;;;;;;;;;4974290;28;20069;-84
2022/02/19 06:29:10;;;;;;;3.90;0.50;;;;;;;;;;4991026;28;20061;-85
2022/02/19 06:31:36;;;;;;;4.03;0.40;;;;;;;;;;4990056;28;20506;-84
2022/02/19 06:34:02;;;;;;;2.00;0.20;;;;;;;;;;4973155;28;20144;-84
2022/02/19 06:36:28;;;;;;;4.13;0.20;;;;;;;;;;4973122;28;20037;-84
2022/02/19 06:38:54;;;;;;;1.80;0.27;;;;;;;;;;4974959;28;20027;-85
2022/02/19 06:41:20;;;;;;;4.67;0.47;;;;;;;;;;4992087;28;20110;-84
2022/02/19 06:43:46;;;;;;;2.03;0.37;;;;;;;;;;4973538;28;20040;-85
2022/02/19 06:46:12;;;;;;;4.43;0.67;;;;;;;;;;4991049;28;20030;-85
2022/02/19 06:48:38;;;;;;;4.67;0.53;;;;;;;;;;4986927;28;20026;-84
2022/02/19 06:51:04;;;;;;;1.23;0.20;;;;;;;;;;4992476;28;20040;-84
2022/02/19 06:53:31;;;;;;;4.83;0.93;;;;;;;;;;5011762;28;20050;-83
2022/02/19 06:55:57;;;;;;;3.63;0.37;;;;;;;;;;4995625;28;20050;-85
2022/02/19 06:58:23;;;;;;;5.47;0.30;;;;;;;;;;4978832;28;20037;-84
2022/02/19 07:00:52;;;;;;;0.83;0.13;;;;;;;;;;4973912;28;20026;-84
2022/02/19 07:03:19;;;;;;;2.57;0.43;;;;;;;;;;4991684;28;20053;-85
2022/02/19 07:05:45;;;;;;;4.97;0.47;;;;;;;;;;4991609;28;20030;-84
2022/02/19 07:08:11;;;;;;;4.87;0.40;;;;;;;;;;4973331;28;20097;-85
2022/02/19 07:10:37;;;;;;;2.20;0.30;;;;;;;;;;4991112;28;20474;-84
2022/02/19 07:13:03;;;;;;;3.83;0.40;;;;;;;;;;4973274;28;20054;-85
2022/02/19 07:15:29;;;;;;;1.13;0.27;;;;;;;;;;4990364;28;20061;-84
2022/02/19 07:17:55;;;;;;;2.70;0.50;;;;;;;;;;4991883;28;20026;-84
2022/02/19 07:20:23;;;;;;;3.70;0.50;;;;;;;;;;4990869;28;20105;-84
2022/02/19 07:22:50;;;;;;;1.70;0.20;;;;;;;;;;4991835;28;20034;-83
2022/02/19 07:25:16;;;;;;;4.80;0.53;;;;;;;;;;4974023;28;20513;-85
2022/02/19 07:27:43;;;;;;;6.27;0.50;;;;;;;;;;4975030;28;20321;-85
2022/02/19 07:30:10;;;;;;;4.00;0.60;;;;;;;;;;4991751;28;20035;-85
2022/02/19 07:32:36;;;;;;;2.83;0.43;;;;;;;;;;4981962;28;20023;-85
2022/02/19 07:35:03;;;;;;;1.93;0.40;;;;;;;;;;4991708;28;20490;-85
2022/02/19 07:37:30;;;;;;;1.97;0.20;;;;;;;;;;4975041;28;20069;-85
2022/02/19 07:39:56;;;;;;;6.40;0.40;;;;;;;;;;4975488;28;20062;-84
2022/02/19 07:42:22;;;;;;;2.67;0.30;;;;;;;;;;4971544;28;20427;-85
2022/02/19 07:44:48;;;;;;;3.23;0.30;;;;;;;;;;4974490;28;20037;-84
2022/02/19 07:47:21;;;;;;;0.93;0.13;;;;;;;;;;4992594;28;20117;-83
2022/02/19 07:58:19;;;;;;;1.07;0.20;;;;;;;;;;4990765;28;20033;-85
2022/02/19 08:00:45;;;;;;;1.47;0.20;;;;;;;;;;4973469;28;20034;-84
2022/02/19 08:03:11;;;;;;;3.93;0.50;;;;;;;;;;4989985;28;20513;-83
2022/02/19 08:05:37;;;;;;;2.03;0.33;;;;;;;;;;4974901;28;20101;-85
2022/02/19 08:08:03;;;;;;;3.97;0.53;;;;;;;;;;4969869;28;20028;-84
2022/02/19 08:10:29;;;;;;;3.20;0.50;;;;;;;;;;4986415;28;20116;-85
2022/02/19 08:12:55;;;;;;;5.57;0.30;;;;;;;;;;4973846;28;20030;-86
2022/02/19 08:15:21;;;;;;;7.00;0.40;;;;;;;;;;4972531;28;20034;-85
2022/02/19 08:17:47;;;;;;;4.20;0.50;;;;;;;;;;4992099;28;20106;-85
2022/02/19 08:20:13;;;;;;;3.03;0.23;;;;;;;;;;4976985;28;20077;-84
2022/02/19 08:22:39;;;;;;;4.40;0.60;;;;;;;;;;4991124;28;20041;-85
2022/02/19 08:25:06;;;;;;;2.40;0.50;;;;;;;;;;4981814;28;20140;-85
2022/02/19 08:27:35;;;;;;;4.17;0.27;;;;;;;;;;4989186;28;20037;-85
2022/02/19 08:30:02;;;;;;;2.40;0.30;;;;;;;;;;4975865;28;20034;-84
2022/02/19 08:32:28;;;;;;;3.00;0.50;;;;;;;;;;4972825;28;20031;-85
2022/02/19 08:34:55;;;;;;;1.23;0.23;;;;;;;;;;4972525;28;20439;-86
2022/02/19 08:37:21;;;;;;;7.33;0.57;;;;;;;;;;4973521;28;20027;-84
2022/02/19 08:39:47;;;;;;;4.23;0.40;;;;;;;;;;4973553;28;20158;-84
2022/02/19 08:42:13;;;;;;;7.00;0.50;;;;;;;;;;4973892;28;20450;-84
2022/02/19 08:44:39;;;;;;;5.07;0.60;;;;;;;;;;4973625;28;20034;-84
2022/02/19 08:47:05;;;;;;;6.67;0.83;;;;;;;;;;4973220;28;20541;-84
2022/02/19 08:49:32;;;;;;;5.93;0.77;;;;;;;;;;4973560;28;20031;-83
2022/02/19 08:51:58;;;;;;;5.87;0.50;;;;;;;;;;4989734;28;20143;-85
2022/02/19 08:54:26;;;;;;;0.47;0.13;;;;;;;;;;4987300;28;20022;-85
2022/02/19 08:56:52;;;;;;;1.80;0.40;;;;;;;;;;4988684;28;20026;-85
2022/02/19 08:59:18;;;;;;;5.33;0.90;;;;;;;;;;4972961;28;20038;-85
2022/02/19 09:01:44;;;;;;;2.57;0.30;;;;;;;;;;4989580;28;20663;-85
2022/02/19 09:04:11;;;;;;;1.50;0.33;;;;;;;;;;4971277;28;20034;-86
2022/02/19 09:06:37;;;;;;;4.73;0.30;;;;;;;;;;4973269;28;20030;-86
2022/02/19 09:09:05;;;;;;;4.97;0.30;;;;;;;;;;4986085;28;20121;-85
2022/02/19 09:11:31;;;;;;;2.90;0.30;;;;;;;;;;4976132;28;20089;-85
2022/02/19 09:13:58;;;;;;;11.17;0.93;;;;;;;;;;4985608;28;20022;-83
2022/02/19 09:16:26;;;;;;;1.97;0.20;;;;;;;;;;4977762;28;20045;-85
2022/02/19 09:18:52;;;;;;;4.60;0.30;;;;;;;;;;4991903;28;20026;-86
2022/02/19 09:21:18;;;;;;;1.37;0.30;;;;;;;;;;4975374;28;20042;-86
2022/02/19 09:23:44;;;;;;;1.93;0.33;;;;;;;;;;4991780;28;20030;-86
2022/02/19 09:26:10;;;;;;;2.67;0.20;;;;;;;;;;4969920;28;20173;-86
2022/02/19 09:28:36;;;;;;;4.23;1.07;;;;;;;;;;4972867;28;20101;-85
2022/02/19 09:31:02;;;;;;;1.67;0.30;;;;;;;;;;4977037;28;20027;-86
2022/02/19 09:33:28;;;;;;;1.10;0.30;;;;;;;;;;4976127;28;20101;-86
2022/02/19 09:35:54;;;;;;;1.73;0.30;;;;;;;;;;4980069;28;20108;-87
2022/02/19 09:38:20;;;;;;;1.67;0.20;;;;;;;;;;4995832;28;20038;-86
2022/02/19 09:40:46;;;;;;;2.20;0.43;;;;;;;;;;4978119;28;20041;-86
2022/02/19 09:43:13;;;;;;;3.73;0.20;;;;;;;;;;4977969;28;20101;-85
2022/02/19 09:45:39;;;;;;;1.63;0.30;;;;;;;;;;4970676;28;20503;-86
2022/02/19 09:48:07;;;;;;;2.30;0.40;;;;;;;;;;4975802;28;20035;-86
2022/02/19 09:50:34;;;;;;;1.80;0.40;;;;;;;;;;4975680;28;20041;-86
2022/02/19 09:53:01;;;;;;;2.67;0.40;;;;;;;;;;4978716;28;20034;-86
2022/02/19 09:55:27;;;;;;;3.30;0.80;;;;;;;;;;4977046;28;20573;-86
2022/02/19 09:57:53;;;;;;;4.30;0.30;;;;;;;;;;4995248;28;20022;-85
2022/02/19 10:00:48;;;;;;;0.93;0.37;;;;;;;;;;4995813;28;20045;-89
2022/02/19 10:03:23;;;;;;;3.73;0.60;;;;;;;;;;4957878;28;20046;-90
2022/02/19 10:05:50;;;;;;;1.10;0.20;;;;;;;;;;4977763;28;20033;-89
2022/02/19 10:08:16;;;;;;;1.37;0.30;;;;;;;;;;4978265;28;20075;-90
2022/02/19 10:10:48;;;;;;;1.90;0.30;;;;;;;;;;4966321;28;20104;-91
2022/02/19 10:13:27;;;;;;;3.30;0.38;;;;;;;;;;4968165;28;20056;-90
2022/02/19 10:15:53;;;;;;;1.00;0.20;;;;;;;;;;4979832;28;20038;-90
2022/02/19 10:18:23;;;;;;;7.17;0.83;;;;;;;;;;4997204;23;20120;-85
2022/02/19 10:20:53;;;;;;;2.57;0.33;;;;;;;;;;4971878;28;20450;-86
2022/02/19 10:23:19;;;;;;;4.40;0.30;;;;;;;;;;4974811;28;20034;-86
2022/02/19 10:26:04;;;;;;;3.00;0.33;;;;;;;;;;4973576;28;20504;-87
2022/02/19 10:28:30;;;;;;;1.73;0.20;;;;;;;;;;4959142;28;20114;-84
2022/02/19 10:30:56;;;;;;;2.40;0.67;;;;;;;;;;4955652;28;20039;-85
2022/02/19 10:33:26;;;;;;;3.63;0.53;;;;;;;;;;4955908;29;20404;-85
2022/02/19 10:35:52;;;;;;;1.03;0.10;;;;;;;;;;4970287;28;20069;-86
2022/02/19 10:38:19;;;;;;;5.73;0.43;;;;;;;;;;4919263;29;20186;-84
2022/02/19 10:40:50;;;;;;;2.90;0.20;;;;;;;;;;4935076;29;20038;-86
2022/02/19 10:43:17;;;;;;;5.23;0.20;;;;;;;;;;4936132;29;20060;-86
2022/02/19 10:45:55;;;;;;;3.40;0.20;;;;;;;;;;4933159;29;20059;-86
2022/02/19 10:48:30;;;;;;;2.37;0.27;;;;;;;;;;4919307;29;20408;-86
2022/02/19 10:51:12;;;;;;;4.23;0.40;;;;;;;;;;4941693;28;20526;-85
2022/02/19 10:53:39;;;;;;;3.53;0.43;;;;;;;;;;4949715;28;20027;-86
2022/02/19 10:56:12;;;;;;;1.27;0.40;;;;;;;;;;4936892;29;20034;-86
2022/02/19 10:58:39;;;;;;;0.67;0.10;;;;;;;;;;4938376;29;20035;-86
2022/02/19 11:01:23;;;;;;;1.63;0.37;;;;;;;;;;4924276;29;20043;-86
2022/02/19 11:03:49;;;;;;;0.70;0.07;;;;;;;;;;4935881;29;20158;-86
2022/02/19 11:06:15;;;;;;;0.77;0.20;;;;;;;;;;4918786;29;20063;-86
2022/02/19 11:08:45;;;;;;;3.30;0.10;;;;;;;;;;4921641;28;20494;-85
2022/02/19 11:11:11;;;;;;;1.60;0.20;;;;;;;;;;4937853;29;20027;-85
2022/02/19 11:13:38;;;;;;;4.77;0.40;;;;;;;;;;4954677;29;20030;-85
2022/02/19 11:16:04;;;;;;;1.77;0.20;;;;;;;;;;4955263;28;20027;-86
2022/02/19 11:18:32;;;;;;;1.47;0.30;;;;;;;;;;4934576;29;20035;-86
2022/02/19 11:20:59;;;;;;;1.10;0.30;;;;;;;;;;4918282;29;20553;-86
2022/02/19 11:23:25;;;;;;;1.50;0.33;;;;;;;;;;4935271;29;20377;-86
2022/02/19 11:25:52;;;;;;;3.60;0.33;;;;;;;;;;4958757;28;20069;-86
2022/02/19 11:28:18;;;;;;;3.20;0.60;;;;;;;;;;4956506;28;20037;-86
2022/02/19 11:30:49;;;;;;;1.50;0.20;;;;;;;;;;4956379;28;20443;-85
2022/02/19 11:33:15;;;;;;;2.70;0.37;;;;;;;;;;4956240;28;20027;-86
2022/02/19 11:35:42;;;;;;;2.57;0.30;;;;;;;;;;4956490;28;20050;-85
2022/02/19 11:38:21;;;;;;;0.67;0.10;;;;;;;;;;4954447;28;20059;-85
2022/02/19 11:40:47;;;;;;;3.07;0.33;;;;;;;;;;4937238;29;20086;-85
2022/02/19 11:43:32;;;;;;;2.93;0.40;;;;;;;;;;4933458;29;20036;-85
2022/02/19 11:46:00;;;;;;;1.10;0.40;;;;;;;;;;4918193;29;20039;-86
2022/02/19 11:48:28;;;;;;;1.30;0.30;;;;;;;;;;4918057;29;20126;-85
2022/02/19 11:51:14;;;;;;;1.70;0.23;;;;;;;;;;4918440;29;20074;-85
2022/02/19 11:53:40;;;;;;;1.53;0.20;;;;;;;;;;4933961;29;20127;-85
2022/02/19 11:56:10;;;;;;;2.00;0.40;;;;;;;;;;4934822;29;20086;-84
2022/02/19 11:58:49;;;;;;;0.53;0.10;;;;;;;;;;4935646;29;20092;-86
2022/02/19 12:01:15;;;;;;;1.87;0.23;;;;;;;;;;4919202;29;20066;-85
2022/02/19 12:03:41;;;;;;;4.93;0.77;;;;;;;;;;4934832;29;20062;-85
2022/02/19 12:06:27;;;;;;;1.97;0.43;;;;;;;;;;4935369;29;20043;-85
2022/02/19 12:09:09;;;;;;;3.10;0.30;;;;;;;;;;4924879;29;20050;-85
2022/02/19 12:11:57;;;;;;;4.10;0.50;;;;;;;;;;4950898;28;20039;-85
2022/02/19 12:14:43;;;;;;;1.00;0.20;;;;;;;;;;4954535;29;20023;-86
2022/02/19 12:17:19;;;;;;;1.53;0.53;;;;;;;;;;4952078;29;20035;-85
2022/02/19 12:19:57;;;;;;;5.03;0.37;;;;;;;;;;4923006;29;20122;-85
2022/02/19 12:22:32;;;;;;;2.13;0.40;;;;;;;;;;4935725;29;20028;-84
2022/02/19 12:24:59;;;;;;;1.30;0.27;;;;;;;;;;4938970;28;20031;-85
2022/02/19 12:27:25;;;;;;;3.00;0.40;;;;;;;;;;4958010;28;20070;-84
2022/02/19 12:29:51;;;;;;;2.53;0.33;;;;;;;;;;4958867;28;20396;-84
2022/02/19 12:32:20;;;;;;;0.87;0.13;;;;;;;;;;4937955;29;20075;-85
2022/02/19 12:34:59;;;;;;;2.73;0.40;;;;;;;;;;4936514;29;20114;-85
2022/02/19 12:37:31;;;;;;;3.03;0.60;;;;;;;;;;4955294;28;20019;-84
2022/02/19 12:40:00;;;;;;;2.08;0.30;;;;;;;;;;4955249;29;20149;-85
2022/02/19 12:42:29;;;;;;;2.63;0.40;;;;;;;;;;4954666;28;20110;-84
2022/02/19 12:45:21;;;;;;;1.43;0.20;;;;;;;;;;4917765;29;20038;-84
2022/02/19 12:47:47;;;;;;;1.75;0.30;;;;;;;;;;4914557;29;20063;-84
2022/02/19 12:50:15;;;;;;;3.40;0.60;;;;;;;;;;4935675;28;20039;-85
2022/02/19 12:52:41;;;;;;;2.75;0.43;;;;;;;;;;4954034;29;20019;-85
2022/02/19 12:55:09;;;;;;;1.38;0.10;;;;;;;;;;4953507;28;20671;-85
2022/02/19 12:57:35;;;;;;;1.45;0.28;;;;;;;;;;4936684;29;20090;-85
2022/02/19 13:00:04;;;;;;;2.13;0.22;;;;;;;;;;4938023;29;20038;-85
2022/02/19 13:02:30;;;;;;;0.90;0.20;;;;;;;;;;4953420;28;20042;-86
2022/02/19 13:04:59;;;;;;;2.00;0.63;;;;;;;;;;4935753;29;20031;-85
2022/02/19 13:07:26;;;;;;;0.60;0.20;;;;;;;;;;4952728;28;20038;-85
2022/02/19 13:09:54;;;;;;;1.17;0.25;;;;;;;;;;4937990;28;20043;-85
2022/02/19 13:12:29;;;;;;;1.60;0.13;;;;;;;;;;4936149;29;20023;-85
2022/02/19 13:14:56;;;;;;;1.05;0.35;;;;;;;;;;4935068;29;20109;-83
2022/02/19 13:17:22;;;;;;;2.67;0.30;;;;;;;;;;4953146;29;20103;-85
2022/02/19 13:19:48;;;;;;;2.67;0.32;;;;;;;;;;4939016;28;20107;-86
2022/02/19 13:22:20;;;;;;;4.28;0.30;;;;;;;;;;4952225;28;20115;-85
2022/02/19 13:24:46;;;;;;;;;;;;;;;;;;4951207;28;20038;-84
2022/02/19 13:27:23;;;;;;;1.88;0.15;;;;;;;;;;4953305;28;20008;-85
2022/02/19 13:29:50;;;;;;;1.63;0.10;;;;;;;;;;4955744;28;20030;-85
2022/02/19 13:32:20;;;;;;;1.05;0.20;;;;;;;;;;4954972;28;20086;-84
2022/02/19 13:34:47;;;;;;;0.90;0.10;;;;;;;;;;4954609;28;20532;-84
2022/02/19 13:37:13;;;;;;;0.40;0.20;;;;;;;;;;4963762;28;20079;-82
2022/02/19 13:39:41;;;;;;;1.15;0.10;;;;;;;;;;4967993;28;20038;-83
2022/02/19 13:42:10;;;;;;;1.58;0.13;;;;;;;;;;4954411;28;20041;-85
2022/02/19 13:44:45;;;;;;;1.02;0.20;;;;;;;;;;4952241;28;20039;-83
2022/02/19 13:47:11;;;;;;;1.95;0.10;;;;;;;;;;4951651;29;20519;-83
2022/02/19 13:49:38;;;;;;;1.95;0.28;;;;;;;;;;4937371;28;20036;-85
2022/02/19 13:52:04;;;;;;;3.00;0.20;;;;;;;;;;4917088;29;20039;-86
2022/02/19 13:54:38;;;;;;;1.25;0.30;;;;;;;;;;4934392;29;20027;-86
2022/02/19 13:57:21;;;;;;;0.25;0.00;;;;;;;;;;4934567;28;20365;-86
2022/02/19 14:00:08;;;;;;;0.77;0.20;;;;;;;;;;4934337;29;20032;-86
2022/02/19 14:02:34;;;;;;;0.95;0.10;;;;;;;;;;4934241;29;20114;-85
2022/02/19 14:05:01;;;;;;;3.13;0.30;;;;;;;;;;4939083;28;20050;-86
2022/02/19 14:07:28;;;;;;;0.25;0.20;;;;;;;;;;4936624;29;20082;-86
2022/02/19 14:10:07;;;;;;;1.02;0.30;;;;;;;;;;4951835;28;20035;-88
2022/02/19 14:12:37;;;;;;;0.93;0.15;;;;;;;;;;4954439;29;20424;-86
2022/02/19 14:15:04;;;;;;;2.78;0.50;;;;;;;;;;4936506;29;20059;-86
2022/02/19 14:17:44;;;;;;;0.95;0.45;;;;;;;;;;4940309;29;20419;-87
2022/02/19 14:20:24;;;;;;;0.85;0.25;;;;;;;;;;4936640;29;20402;-85
2022/02/19 14:23:10;;;;;;;0.80;0.10;;;;;;;;;;4945432;29;20079;-87
2022/02/19 14:26:15;;;;;;;2.75;0.20;;;;;;;;;;4944741;29;20039;-87
2022/02/19 14:29:02;;;;;;;3.05;0.20;;;;;;;;;;4944811;28;20090;-88
2022/02/19 14:31:28;;;;;;;1.35;0.25;;;;;;;;;;4946106;29;20074;-88
2022/02/19 14:34:14;;;;;;;3.13;0.30;;;;;;;;;;4957208;28;20027;-88
2022/02/19 14:36:59;;;;;;;;;;;;;;;;;;;;;
2022/02/19 14:39:32;;;;;;;0.38;0.08;;;;;;;;;;4953650;29;20027;-87
2022/02/19 14:42:11;;;;;;;;;;;;;;;;;;;;;
2022/02/19 14:45:06;;;;;;;1.38;0.40;;;;;;;;;;4964697;28;20021;-87
2022/02/19 14:48:13;;;;;;;;;;;;;;;;;;;;;
2022/02/19 14:51:06;;;;;;;0.55;0.17;;;;;;;;;;4899795;28;20031;-87
2022/02/19 14:53:29;;;;;;;0.88;0.35;;;;;;;;;;4954597;28;20030;-86
2022/02/19 14:55:56;;;;;;;2.00;0.38;;;;;;;;;;4954910;29;20030;-85
2022/02/19 14:58:23;;;;;;;0.98;0.10;;;;;;;;;;4929990;29;20122;-86
2022/02/19 15:00:50;;;;;;;0.28;0.10;;;;;;;;;;4955935;29;20439;-86
2022/02/19 15:03:17;;;;;;;1.00;0.30;;;;;;;;;;4954781;28;20086;-87
2022/02/19 15:05:43;;;;;;;0.50;0.40;;;;;;;;;;4956155;28;20023;-86
2022/02/19 15:08:10;;;;;;;0.88;0.15;;;;;;;;;;4955170;28;20034;-86
2022/02/19 15:10:37;;;;;;;1.27;0.17;;;;;;;;;;4938211;29;20031;-87
2022/02/19 15:13:03;;;;;;;1.70;0.40;;;;;;;;;;4938395;29;20436;-86
2022/02/19 15:15:34;;;;;;;1.35;0.30;;;;;;;;;;4936753;29;20144;-86
2022/02/19 15:18:01;;;;;;;1.20;0.20;;;;;;;;;;4954566;28;20035;-86
2022/02/19 15:20:27;;;;;;;1.40;0.20;;;;;;;;;;4939190;29;20027;-86
2022/02/19 15:22:55;;;;;;;3.10;0.13;;;;;;;;;;4946257;29;20081;-86
2022/02/19 15:25:22;;;;;;;2.60;0.30;;;;;;;;;;4946903;28;20043;-86
2022/02/19 15:27:48;;;;;;;1.40;0.40;;;;;;;;;;4936320;28;20122;-86
2022/02/19 15:30:14;;;;;;;0.63;0.10;;;;;;;;;;4948490;29;20402;-86
2022/02/19 15:32:40;;;;;;;0.77;0.20;;;;;;;;;;4958310;29;20058;-86
2022/02/19 15:35:10;;;;;;;1.23;0.30;;;;;;;;;;4970519;29;20047;-86
2022/02/19 15:37:37;;;;;;;3.20;0.35;;;;;;;;;;4956713;29;20102;-86
2022/02/19 15:40:04;;;;;;;0.77;0.40;;;;;;;;;;4962084;29;20039;-85
2022/02/19 15:42:30;;;;;;;0.38;0.17;;;;;;;;;;4964912;28;20069;-85
2022/02/19 15:44:57;;;;;;;2.67;0.32;;;;;;;;;;4940593;29;20566;-85
2022/02/19 15:47:27;;;;;;;1.57;0.43;;;;;;;;;;4929107;29;20035;-85
2022/02/19 15:49:53;;;;;;;1.85;0.30;;;;;;;;;;4936926;29;20261;-86
2022/02/19 15:52:19;;;;;;;1.02;0.43;;;;;;;;;;4936181;28;20026;-86
2022/02/19 15:54:45;;;;;;;1.83;0.30;;;;;;;;;;4952630;29;20074;-86
2022/02/19 15:57:11;;;;;;;2.37;0.97;;;;;;;;;;4936419;29;20019;-85
2022/02/19 15:59:40;;;;;;;3.50;0.40;;;;;;;;;;4953199;29;20035;-86
2022/02/19 16:02:06;;;;;;;1.58;0.20;;;;;;;;;;4952856;28;20039;-86
2022/02/19 16:04:32;;;;;;;1.20;0.40;;;;;;;;;;4935587;29;20082;-86
2022/02/19 16:06:59;;;;;;;0.77;0.10;;;;;;;;;;4935315;29;20541;-86
2022/02/19 16:09:35;;;;;;;1.67;0.20;;;;;;;;;;4951698;28;20074;-86
2022/02/19 16:12:05;;;;;;;2.08;0.43;;;;;;;;;;4934782;29;20067;-87
2022/02/19 16:14:40;;;;;;;2.10;0.10;;;;;;;;;;4938078;29;20508;-86
2022/02/19 16:17:07;;;;;;;1.60;0.50;;;;;;;;;;4974617;23;20028;-87
2022/02/19 16:19:33;;;;;;;1.53;0.30;;;;;;;;;;4960688;28;20034;-88
2022/02/19 16:21:59;;;;;;;0.52;0.17;;;;;;;;;;4980893;28;20023;-88
2022/02/19 16:24:25;;;;;;;1.97;0.63;;;;;;;;;;4973196;28;20048;-87
2022/02/19 16:26:51;;;;;;;1.30;0.30;;;;;;;;;;4961702;28;20025;-88
2022/02/19 16:29:17;;;;;;;1.15;0.40;;;;;;;;;;4959632;28;20030;-89
2022/02/19 16:31:46;;;;;;;1.30;0.23;;;;;;;;;;4953540;29;20024;-88
2022/02/19 16:34:12;;;;;;;1.13;0.20;;;;;;;;;;4955394;28;20024;-88
2022/02/19 16:36:38;;;;;;;1.50;0.33;;;;;;;;;;4955682;29;20118;-90
2022/02/19 16:39:07;;;;;;;1.00;0.20;;;;;;;;;;4956737;28;20661;-90
2022/02/19 16:41:33;;;;;;;1.70;0.20;;;;;;;;;;4961012;28;20023;-90
2022/02/19 16:44:02;;;;;;;0.87;0.20;;;;;;;;;;4940695;29;20035;-90
2022/02/19 16:46:31;;;;;;;1.23;0.13;;;;;;;;;;4942497;28;20054;-89
2022/02/19 16:48:58;;;;;;;1.37;0.10;;;;;;;;;;4954556;28;20090;-89
2022/02/19 16:51:24;;;;;;;1.33;0.10;;;;;;;;;;4935434;29;20053;-89
2022/02/19 16:53:50;;;;;;;2.77;0.40;;;;;;;;;;4947294;28;20114;-90
2022/02/19 16:56:17;;;;;;;1.30;0.20;;;;;;;;;;4955753;29;20035;-90
2022/02/19 16:58:43;;;;;;;1.63;0.20;;;;;;;;;;4962159;28;20031;-90
2022/02/19 17:01:09;;;;;;;1.90;0.20;;;;;;;;;;4951877;28;20062;-90
2022/02/19 17:03:38;;;;;;;1.23;0.20;;;;;;;;;;4951878;28;20038;-91
2022/02/19 17:06:06;;;;;;;1.87;0.40;;;;;;;;;;4945493;28;20028;-90
2022/02/19 17:08:35;;;;;;;2.77;0.37;;;;;;;;;;4955876;28;20042;-89